createdAt,value
2018-10-16T00:02:25.883Z,3.03
2018-10-16T00:04:53.493Z,4.17
2018-10-16T00:07:21.095Z,4.53
2018-10-16T00:09:48.625Z,4.80
2018-10-16T00:12:16.267Z,4.43
2018-10-16T00:14:43.899Z,3.50
2018-10-16T00:17:11.559Z,3.43
2018-10-16T00:19:39.114Z,4.00
2018-10-16T00:22:06.743Z,3.40
2018-10-16T00:24:34.370Z,4.60
2018-10-16T00:27:02.041Z,3.47
2018-10-16T00:29:29.687Z,3.43
2018-10-16T00:31:57.311Z,3.63
2018-10-16T00:34:25.003Z,3.37
2018-10-16T00:36:52.634Z,4.37
2018-10-16T00:39:20.286Z,3.63
2018-10-16T00:41:53.846Z,3.27
2018-10-16T00:44:21.502Z,5.37
2018-10-16T00:46:49.191Z,3.70
2018-10-16T00:49:16.858Z,3.50
2018-10-16T00:51:44.490Z,3.30
2018-10-16T00:54:12.147Z,3.70
2018-10-16T00:56:39.775Z,3.13
2018-10-16T00:59:07.730Z,3.77
2018-10-16T01:01:35.446Z,3.87
2018-10-16T01:04:05.058Z,3.77
2018-10-16T01:06:33.642Z,3.40
2018-10-16T01:09:01.255Z,3.47
2018-10-16T01:11:28.914Z,4.00
2018-10-16T01:13:57.439Z,4.03
2018-10-16T01:16:25.198Z,4.93
2018-10-16T01:18:52.899Z,3.60
2018-10-16T01:21:21.195Z,3.13
2018-10-16T01:23:48.837Z,3.50
2018-10-16T01:26:16.466Z,3.27
2018-10-16T01:28:44.374Z,3.17
2018-10-16T01:31:11.987Z,3.87
2018-10-16T01:33:40.218Z,3.70
2018-10-16T01:36:09.174Z,3.70
2018-10-16T01:38:36.814Z,5.13
2018-10-16T01:41:04.518Z,3.60
2018-10-16T01:43:32.214Z,3.63
2018-10-16T01:45:59.944Z,3.50
2018-10-16T01:48:27.558Z,3.57
2018-10-16T01:50:55.178Z,3.10
2018-10-16T01:53:22.987Z,6.17
2018-10-16T01:55:50.505Z,3.33
2018-10-16T01:58:18.186Z,3.73
2018-10-16T02:00:45.850Z,3.50
2018-10-16T02:03:13.483Z,3.70
2018-10-16T02:05:41.123Z,4.17
2018-10-16T02:08:08.963Z,4.10
2018-10-16T02:10:36.827Z,4.80
2018-10-16T02:13:04.717Z,3.80
2018-10-16T02:15:32.358Z,5.23
2018-10-16T02:17:59.990Z,4.20
2018-10-16T02:20:27.619Z,3.60
2018-10-16T02:22:55.235Z,3.43
2018-10-16T02:25:22.875Z,4.43
2018-10-16T02:27:50.495Z,4.23
2018-10-16T02:30:18.131Z,3.90
2018-10-16T02:32:45.742Z,3.57
2018-10-16T02:35:13.375Z,5.53
2018-10-16T02:37:41.055Z,4.43
2018-10-16T02:40:09.448Z,4.23
2018-10-16T02:42:37.472Z,4.33
2018-10-16T02:45:05.778Z,4.23
2018-10-16T02:47:33.462Z,4.63
2018-10-16T02:50:01.078Z,5.60
2018-10-16T02:52:28.715Z,4.57
2018-10-16T02:54:56.316Z,4.03
2018-10-16T02:57:23.865Z,4.23
2018-10-16T02:59:51.378Z,4.13
2018-10-16T03:02:18.971Z,5.23
2018-10-16T03:04:46.602Z,4.37
2018-10-16T03:07:14.270Z,4.07
2018-10-16T03:09:41.868Z,4.07
2018-10-16T03:12:09.489Z,4.00
2018-10-16T03:14:37.198Z,5.17
2018-10-16T03:17:05.103Z,3.80
2018-10-16T03:19:32.742Z,4.23
2018-10-16T03:22:00.370Z,4.87
2018-10-16T03:24:28.018Z,3.97
2018-10-16T03:26:55.680Z,4.87
2018-10-16T03:29:23.283Z,4.30
2018-10-16T03:31:50.916Z,3.40
2018-10-16T03:34:18.530Z,4.33
2018-10-16T03:36:46.155Z,4.87
2018-10-16T03:39:13.686Z,3.83
2018-10-16T03:41:41.357Z,3.90
2018-10-16T03:44:11.230Z,4.03
2018-10-16T03:46:38.817Z,5.33
2018-10-16T03:49:06.970Z,4.20
2018-10-16T03:51:34.581Z,5.20
2018-10-16T03:54:02.202Z,4.83
2018-10-16T03:56:29.722Z,4.43
2018-10-16T03:58:57.347Z,4.60
2018-10-16T04:01:25.905Z,4.07
2018-10-16T04:03:53.507Z,3.87
2018-10-16T04:06:21.710Z,4.33
2018-10-16T04:08:50.116Z,4.20
2018-10-16T04:11:17.946Z,4.23
2018-10-16T04:13:45.480Z,5.97
2018-10-16T04:16:13.138Z,4.70
2018-10-16T04:18:40.682Z,5.70
2018-10-16T04:21:09.129Z,5.33
2018-10-16T04:23:37.085Z,4.53
2018-10-16T04:26:04.953Z,4.20
2018-10-16T04:28:32.674Z,5.70
2018-10-16T04:31:00.301Z,5.67
2018-10-16T04:33:27.930Z,4.80
2018-10-16T04:35:55.474Z,5.20
2018-10-16T04:38:23.095Z,5.57
2018-10-16T04:40:50.655Z,4.53
2018-10-16T04:43:18.291Z,5.27
2018-10-16T04:45:45.898Z,4.50
2018-10-16T04:48:13.437Z,6.07
2018-10-16T04:50:40.958Z,4.97
2018-10-16T04:53:08.469Z,4.63
2018-10-16T04:55:35.995Z,5.77
2018-10-16T04:58:03.657Z,4.90
2018-10-16T05:00:31.321Z,5.47
2018-10-16T05:02:59.361Z,6.97
2018-10-16T05:05:26.862Z,6.47
2018-10-16T05:07:54.515Z,7.33
2018-10-16T05:10:22.396Z,7.72
2018-10-16T05:12:50.006Z,5.77
2018-10-16T05:15:26.304Z,5.47
2018-10-16T05:17:54.041Z,5.07
2018-10-16T05:20:21.614Z,4.97
2018-10-16T05:22:49.133Z,7.33
2018-10-16T05:25:16.669Z,5.07
2018-10-16T05:27:44.294Z,5.10
2018-10-16T05:30:11.817Z,5.73
2018-10-16T05:32:39.404Z,5.10
2018-10-16T05:35:07.482Z,5.83
2018-10-16T05:37:35.001Z,5.53
2018-10-16T05:40:02.578Z,5.97
2018-10-16T05:42:30.113Z,5.07
2018-10-16T05:44:57.626Z,5.50
2018-10-16T05:47:25.390Z,5.23
2018-10-16T05:49:52.931Z,5.73
2018-10-16T05:52:20.535Z,5.87
2018-10-16T05:54:48.065Z,5.67
2018-10-16T05:57:15.804Z,6.50
2018-10-16T05:59:43.320Z,5.37
2018-10-16T06:02:11.018Z,6.10
2018-10-16T06:04:38.870Z,5.27
2018-10-16T06:07:06.569Z,5.17
2018-10-16T06:09:34.386Z,4.80
2018-10-16T06:12:02.050Z,8.13
2018-10-16T06:14:29.699Z,4.73
2018-10-16T06:16:57.273Z,5.53
2018-10-16T06:19:24.822Z,5.90
2018-10-16T06:21:52.341Z,5.63
2018-10-16T06:24:20.062Z,5.73
2018-10-16T06:26:47.537Z,5.93
2018-10-16T06:29:15.037Z,6.07
2018-10-16T06:31:42.710Z,8.80
2018-10-16T06:34:10.450Z,6.43
2018-10-16T06:36:38.070Z,5.40
2018-10-16T06:39:07.726Z,5.63
2018-10-16T06:41:35.307Z,7.13
2018-10-16T06:44:02.925Z,5.03
2018-10-16T06:46:30.663Z,5.57
2018-10-16T06:48:58.305Z,6.43
2018-10-16T06:51:25.914Z,6.47
2018-10-16T06:53:53.606Z,9.30
2018-10-16T06:56:21.113Z,6.43
2018-10-16T06:58:48.745Z,6.60
2018-10-16T07:01:16.283Z,5.90
2018-10-16T07:03:43.894Z,5.57
2018-10-16T07:06:11.528Z,5.57
2018-10-16T07:08:39.041Z,5.17
2018-10-16T07:11:06.662Z,6.13
2018-10-16T07:13:34.286Z,5.80
2018-10-16T07:16:01.912Z,5.37
2018-10-16T07:18:29.523Z,5.67
2018-10-16T07:20:57.175Z,5.23
2018-10-16T07:23:24.888Z,6.73
2018-10-16T07:25:52.459Z,7.03
2018-10-16T07:28:19.980Z,7.20
2018-10-16T07:30:47.666Z,6.20
2018-10-16T07:33:15.161Z,5.63
2018-10-16T07:35:42.783Z,5.00
2018-10-16T07:38:10.501Z,5.50
2018-10-16T07:40:38.059Z,4.90
2018-10-16T07:43:05.737Z,5.30
2018-10-16T07:45:33.357Z,5.77
2018-10-16T07:48:00.983Z,5.13
2018-10-16T07:50:28.614Z,4.70
2018-10-16T07:52:56.217Z,4.97
2018-10-16T07:55:23.864Z,5.97
2018-10-16T07:57:51.531Z,7.17
2018-10-16T08:00:19.195Z,7.70
2018-10-16T08:02:46.862Z,6.57
2018-10-16T08:05:14.514Z,6.80
2018-10-16T08:07:42.218Z,7.03
2018-10-16T08:10:11.550Z,8.77
2018-10-16T08:12:39.218Z,7.20
2018-10-16T08:15:07.452Z,8.07
2018-10-16T08:17:35.084Z,7.93
2018-10-16T08:20:02.710Z,8.90
2018-10-16T08:22:30.315Z,10.03
2018-10-16T08:24:57.935Z,10.87
2018-10-16T08:27:25.591Z,7.67
2018-10-16T08:29:53.252Z,6.20
2018-10-16T08:32:20.822Z,8.83
2018-10-16T08:34:48.482Z,7.80
2018-10-16T08:37:26.723Z,6.93
2018-10-16T08:39:56.131Z,13.50
2018-10-16T08:42:36.239Z,9.77
2018-10-16T08:45:15.111Z,6.83
2018-10-16T08:47:54.162Z,7.17
2018-10-16T08:50:34.094Z,9.07
2018-10-16T08:53:02.038Z,5.63
2018-10-16T08:55:29.686Z,8.87
2018-10-16T08:57:57.390Z,8.47
2018-10-16T09:00:25.023Z,7.40
2018-10-16T09:02:52.643Z,10.00
2018-10-16T09:05:20.269Z,6.23
2018-10-16T09:07:47.894Z,6.83
2018-10-16T09:10:15.526Z,5.40
2018-10-16T09:12:43.192Z,7.43
2018-10-16T09:15:10.826Z,7.83
2018-10-16T09:17:38.450Z,5.30
2018-10-16T09:20:06.474Z,5.17
2018-10-16T09:22:34.095Z,10.03
2018-10-16T09:25:01.752Z,7.23
2018-10-16T09:27:29.358Z,8.40
2018-10-16T09:29:56.955Z,11.33
2018-10-16T09:32:24.755Z,5.77
2018-10-16T09:34:52.594Z,6.40
2018-10-16T09:37:20.247Z,5.53
2018-10-16T09:39:48.046Z,5.73
2018-10-16T09:42:15.686Z,4.50
2018-10-16T09:44:43.311Z,3.80
2018-10-16T09:47:10.942Z,5.33
2018-10-16T09:49:38.732Z,5.40
2018-10-16T09:52:06.496Z,4.60
2018-10-16T09:54:34.134Z,4.20
2018-10-16T09:57:02.619Z,3.97
2018-10-16T09:59:30.231Z,5.33
2018-10-16T10:01:57.838Z,4.30
2018-10-16T10:04:25.460Z,4.23
2018-10-16T10:06:53.094Z,4.23
2018-10-16T10:09:20.741Z,4.87
2018-10-16T10:11:48.354Z,4.00
2018-10-16T10:14:15.990Z,5.20
2018-10-16T10:16:43.612Z,4.67
2018-10-16T10:19:11.242Z,4.47
2018-10-16T10:21:38.842Z,5.35
2018-10-16T10:24:06.514Z,6.22
2018-10-16T10:26:34.138Z,4.73
2018-10-16T10:29:01.800Z,4.87
2018-10-16T10:31:29.510Z,4.93
2018-10-16T10:33:57.496Z,5.10
2018-10-16T10:36:25.178Z,5.23
2018-10-16T10:38:52.782Z,6.07
2018-10-16T10:41:20.391Z,8.10
2018-10-16T10:43:48.006Z,5.23
2018-10-16T10:46:15.766Z,5.20
2018-10-16T10:48:43.404Z,4.63
2018-10-16T10:51:11.234Z,4.77
2018-10-16T10:53:38.666Z,5.77
2018-10-16T10:56:06.978Z,6.03
2018-10-16T10:58:34.626Z,3.70
2018-10-16T11:01:02.252Z,4.33
2018-10-16T11:03:30.027Z,4.30
2018-10-16T11:05:57.567Z,5.27
2018-10-16T11:08:25.376Z,5.57
2018-10-16T11:10:53.102Z,3.73
2018-10-16T11:13:20.736Z,4.47
2018-10-16T11:15:48.362Z,3.90
2018-10-16T11:18:16.090Z,4.80
2018-10-16T11:20:43.756Z,3.23
2018-10-16T11:23:11.459Z,3.70
2018-10-16T11:25:39.095Z,3.33
2018-10-16T11:28:06.757Z,4.67
2018-10-16T11:30:34.391Z,3.73
2018-10-16T11:33:02.059Z,2.90
2018-10-16T11:35:29.626Z,4.00
2018-10-16T11:37:57.247Z,3.30
2018-10-16T11:40:24.910Z,3.67
2018-10-16T11:42:52.588Z,3.33
2018-10-16T11:45:20.212Z,3.47
2018-10-16T11:47:47.824Z,4.73
2018-10-16T11:50:15.475Z,4.07
2018-10-16T11:52:43.063Z,4.03
2018-10-16T11:55:10.894Z,3.60
2018-10-16T11:57:38.528Z,3.23
2018-10-16T12:00:10.635Z,4.03
2018-10-16T12:02:38.337Z,3.23
2018-10-16T12:05:06.030Z,3.13
2018-10-16T12:07:33.666Z,4.10
2018-10-16T12:10:01.299Z,3.87
2018-10-16T12:12:28.913Z,4.03
2018-10-16T12:14:56.515Z,3.60
2018-10-16T12:17:31.210Z,3.30
2018-10-16T12:20:05.196Z,3.33
2018-10-16T12:22:32.704Z,3.63
2018-10-16T12:25:00.718Z,4.10
2018-10-16T12:27:28.383Z,4.73
2018-10-16T12:29:56.079Z,3.30
2018-10-16T12:32:23.865Z,3.33
2018-10-16T12:34:51.445Z,3.43
2018-10-16T12:37:19.088Z,3.33
2018-10-16T12:39:46.743Z,4.57
2018-10-16T12:42:14.665Z,3.83
2018-10-16T12:44:42.279Z,3.43
2018-10-16T12:47:10.128Z,3.37
2018-10-16T12:49:37.809Z,2.90
2018-10-16T12:52:05.466Z,3.00
2018-10-16T12:54:33.082Z,2.70
2018-10-16T12:57:00.808Z,3.30
2018-10-16T12:59:28.387Z,3.10
2018-10-16T13:01:55.995Z,3.10
2018-10-16T13:07:26.838Z,3.83
2018-10-16T13:09:54.598Z,3.20
2018-10-16T13:12:22.222Z,3.23
2018-10-16T13:14:49.830Z,4.53
2018-10-16T13:17:17.882Z,4.13
2018-10-16T13:19:45.438Z,5.43
2018-10-16T13:22:13.134Z,3.27
2018-10-16T13:24:40.686Z,5.40
2018-10-16T13:27:08.303Z,3.53
2018-10-16T13:29:36.240Z,4.73
2018-10-16T13:32:03.979Z,3.10
2018-10-16T13:34:31.594Z,4.10
2018-10-16T13:36:59.269Z,2.83
2018-10-16T13:39:27.676Z,3.03
2018-10-16T13:41:55.999Z,3.20
2018-10-16T13:44:24.349Z,2.70
2018-10-16T13:46:52.023Z,2.73
2018-10-16T13:49:19.654Z,3.83
2018-10-16T13:51:47.231Z,2.93
2018-10-16T13:54:14.871Z,3.23
2018-10-16T13:56:42.556Z,3.67
2018-10-16T13:59:10.142Z,4.23
2018-10-16T14:01:37.775Z,3.70
2018-10-16T14:04:05.620Z,4.17
2018-10-16T14:06:33.162Z,3.13
2018-10-16T14:09:00.866Z,3.60
2018-10-16T14:11:28.514Z,4.53
2018-10-16T14:13:56.168Z,4.20
2018-10-16T14:16:23.755Z,3.70
2018-10-16T14:18:52.420Z,5.40
2018-10-16T14:21:21.087Z,2.70
2018-10-16T14:23:48.699Z,2.58
2018-10-16T14:26:16.447Z,3.23
2018-10-16T14:28:43.967Z,4.47
2018-10-16T14:31:11.771Z,3.67
2018-10-16T14:33:39.522Z,4.00
2018-10-16T14:36:07.119Z,4.13
2018-10-16T14:38:35.461Z,3.17
2018-10-16T14:41:03.141Z,3.13
2018-10-16T14:43:31.304Z,3.30
2018-10-16T14:45:59.467Z,3.40
2018-10-16T14:48:27.066Z,4.63
2018-10-16T14:50:54.685Z,3.93
2018-10-16T14:53:22.322Z,3.30
2018-10-16T14:55:49.958Z,3.00
2018-10-16T14:58:17.627Z,3.60
2018-10-16T15:00:45.202Z,3.73
2018-10-16T15:03:12.815Z,3.57
2018-10-16T15:05:40.415Z,3.57
2018-10-16T15:08:08.040Z,3.13
2018-10-16T15:10:35.685Z,4.03
2018-10-16T15:13:03.285Z,4.07
2018-10-16T15:15:30.893Z,3.27
2018-10-16T15:17:58.522Z,5.23
2018-10-16T15:20:26.120Z,4.70
2018-10-16T15:22:53.757Z,3.73
2018-10-16T15:25:21.386Z,3.60
2018-10-16T15:27:49.026Z,5.23
2018-10-16T15:30:16.691Z,3.83
2018-10-16T15:32:44.358Z,3.03
2018-10-16T15:35:11.984Z,3.40
2018-10-16T15:37:39.724Z,4.00
2018-10-16T15:40:08.548Z,6.47
2018-10-16T15:42:36.267Z,3.43
2018-10-16T15:45:04.546Z,3.20
2018-10-16T15:47:32.143Z,4.50
2018-10-16T15:49:59.842Z,3.87
2018-10-16T15:52:27.483Z,3.60
2018-10-16T15:54:55.124Z,3.97
2018-10-16T15:57:22.755Z,3.57
2018-10-16T15:59:50.395Z,3.70
2018-10-16T16:02:18.069Z,3.70
2018-10-16T16:04:45.874Z,4.10
2018-10-16T16:07:13.510Z,3.17
2018-10-16T16:09:41.148Z,3.40
2018-10-16T16:12:08.821Z,3.40
2018-10-16T16:14:36.388Z,5.27
2018-10-16T16:17:04.066Z,3.47
2018-10-16T16:19:31.697Z,3.50
2018-10-16T16:21:59.349Z,3.40
2018-10-16T16:24:26.934Z,5.40
2018-10-16T16:26:54.553Z,3.77
2018-10-16T16:29:22.159Z,5.23
2018-10-16T16:31:49.817Z,4.97
2018-10-16T16:34:17.418Z,3.63
2018-10-16T16:36:45.118Z,3.13
2018-10-16T16:39:13.542Z,3.30
2018-10-16T16:41:41.291Z,6.17
2018-10-16T16:44:08.982Z,2.97
2018-10-16T16:46:36.678Z,4.23
2018-10-16T16:49:04.406Z,4.33
2018-10-16T16:51:32.050Z,4.13
2018-10-16T16:53:59.714Z,3.73
2018-10-16T16:56:27.358Z,3.03
2018-10-16T16:58:55.009Z,3.13
2018-10-16T17:01:22.631Z,4.00
2018-10-16T17:03:50.250Z,3.27
2018-10-16T17:06:17.871Z,3.33
2018-10-16T17:08:45.470Z,4.43
2018-10-16T17:11:13.056Z,2.87
2018-10-16T17:13:40.694Z,4.23
2018-10-16T17:16:08.315Z,3.97
2018-10-16T17:18:35.959Z,3.40
2018-10-16T17:21:03.652Z,4.33
2018-10-16T17:23:31.267Z,3.30
2018-10-16T17:25:58.973Z,3.47
2018-10-16T17:28:26.486Z,5.33
2018-10-16T17:30:54.070Z,2.73
2018-10-16T17:33:21.723Z,3.47
2018-10-16T17:35:49.345Z,5.37
2018-10-16T17:38:16.961Z,4.13
2018-10-16T17:40:44.588Z,3.63
2018-10-16T17:43:12.324Z,3.77
2018-10-16T17:45:39.942Z,6.00
2018-10-16T17:48:07.562Z,5.73
2018-10-16T17:50:35.174Z,3.87
2018-10-16T17:53:02.806Z,5.60
2018-10-16T17:55:30.427Z,3.43
2018-10-16T17:57:58.189Z,5.43
2018-10-16T18:00:25.730Z,8.57
2018-10-16T18:02:53.351Z,3.60
2018-10-16T18:05:21.026Z,3.30
2018-10-16T18:07:48.647Z,3.40
2018-10-16T18:10:16.295Z,4.07
2018-10-16T18:12:43.954Z,4.43
2018-10-16T18:15:12.812Z,4.97
2018-10-16T18:17:41.107Z,4.87
2018-10-16T18:20:09.937Z,3.90
2018-10-16T18:22:37.522Z,4.37
2018-10-16T18:25:05.982Z,5.83
2018-10-16T18:27:33.611Z,7.07
2018-10-16T18:30:01.258Z,4.37
2018-10-16T18:32:28.891Z,4.13
2018-10-16T18:34:56.514Z,5.23
2018-10-16T18:37:24.784Z,4.90
2018-10-16T18:39:52.394Z,5.27
2018-10-16T18:42:20.097Z,7.00
2018-10-16T18:44:47.613Z,5.33
2018-10-16T18:47:15.149Z,3.10
2018-10-16T18:49:42.662Z,3.40
2018-10-16T18:52:10.254Z,3.90
2018-10-16T18:54:37.839Z,3.73
2018-10-16T18:57:05.654Z,4.00
2018-10-16T18:59:33.117Z,3.87
2018-10-16T19:02:00.692Z,4.58
2018-10-16T19:04:28.161Z,3.77
2018-10-16T19:06:55.787Z,4.53
2018-10-16T19:09:23.415Z,4.30
2018-10-16T19:11:50.953Z,4.13
2018-10-16T19:14:18.517Z,4.03
2018-10-16T19:16:46.036Z,3.50
2018-10-16T19:19:13.663Z,4.20
2018-10-16T19:21:41.181Z,3.87
2018-10-16T19:24:08.678Z,4.83
2018-10-16T19:26:36.300Z,3.30
2018-10-16T19:29:04.019Z,4.20
2018-10-16T19:31:31.552Z,3.40
2018-10-16T19:33:59.090Z,6.50
2018-10-16T19:36:26.691Z,4.50
2018-10-16T19:38:54.200Z,4.60
2018-10-16T19:41:21.732Z,4.73
2018-10-16T19:43:49.297Z,4.90
2018-10-16T19:46:16.906Z,3.70
2018-10-16T19:48:44.446Z,3.80
2018-10-16T19:51:12.168Z,4.30
2018-10-16T19:53:39.747Z,4.60
2018-10-16T19:56:07.295Z,3.60
2018-10-16T19:58:34.898Z,3.60
2018-10-16T20:01:02.569Z,3.73
2018-10-16T20:03:30.202Z,3.87
2018-10-16T20:05:57.723Z,4.63
2018-10-16T20:08:25.344Z,3.37
2018-10-16T20:10:52.903Z,3.53
2018-10-16T20:13:20.518Z,7.83
2018-10-16T20:15:48.132Z,4.83
2018-10-16T20:18:15.671Z,3.63
2018-10-16T20:20:43.283Z,4.47
2018-10-16T20:23:10.874Z,3.73
2018-10-16T20:25:38.517Z,4.30
2018-10-16T20:28:06.053Z,3.93
2018-10-16T20:30:33.672Z,3.80
2018-10-16T20:33:01.285Z,4.03
2018-10-16T20:35:28.907Z,4.03
2018-10-16T20:37:56.441Z,4.13
2018-10-16T20:40:23.966Z,4.37
2018-10-16T20:42:51.559Z,4.07
2018-10-16T20:45:19.105Z,3.67
2018-10-16T20:47:46.730Z,3.63
2018-10-16T20:50:14.263Z,5.40
2018-10-16T20:52:41.855Z,4.53
2018-10-16T20:55:09.660Z,4.23
2018-10-16T20:57:37.412Z,3.90
2018-10-16T21:00:05.178Z,3.83
2018-10-16T21:02:32.685Z,4.50
2018-10-16T21:05:00.398Z,3.60
2018-10-16T21:07:27.978Z,5.40
2018-10-16T21:09:55.478Z,3.50
2018-10-16T21:15:12.999Z,4.63
2018-10-16T21:17:40.530Z,7.10
2018-10-16T21:20:08.683Z,4.27
2018-10-16T21:22:36.240Z,4.50
2018-10-16T21:25:03.997Z,3.70
2018-10-16T21:27:31.632Z,4.20
2018-10-16T21:29:59.175Z,3.87
2018-10-16T21:32:26.690Z,4.83
2018-10-16T21:34:54.342Z,5.50
2018-10-16T21:37:21.821Z,4.97
2018-10-16T21:39:49.434Z,4.70
2018-10-16T21:42:16.978Z,4.50
2018-10-16T21:44:44.515Z,3.63
2018-10-16T21:47:12.263Z,3.60
2018-10-16T21:49:39.752Z,4.27
2018-10-16T21:52:07.366Z,3.80
2018-10-16T21:54:35.002Z,3.20
2018-10-16T21:57:02.627Z,5.13
2018-10-16T21:59:30.301Z,3.23
2018-10-16T22:02:03.421Z,3.93
2018-10-16T22:04:30.951Z,3.60
2018-10-16T22:06:58.687Z,5.10
2018-10-16T22:09:26.275Z,5.10
2018-10-16T22:11:53.910Z,4.20
2018-10-16T22:14:21.513Z,3.43
2018-10-16T22:16:49.128Z,3.33
2018-10-16T22:19:16.843Z,3.40
2018-10-16T22:21:44.286Z,3.37
2018-10-16T22:24:11.887Z,3.60
2018-10-16T22:26:39.506Z,4.23
2018-10-16T22:29:07.204Z,3.97
2018-10-16T22:31:34.729Z,3.73
2018-10-16T22:34:02.273Z,3.10
2018-10-16T22:36:29.882Z,4.70
2018-10-16T22:38:57.495Z,4.13
2018-10-16T22:41:25.183Z,4.10
2018-10-16T22:43:52.749Z,4.60
2018-10-16T22:46:20.418Z,3.90
2018-10-16T22:48:48.090Z,4.07
2018-10-16T22:51:15.720Z,3.53
2018-10-16T22:53:43.331Z,3.37
2018-10-16T22:56:10.965Z,3.30
2018-10-16T22:58:38.507Z,3.13
2018-10-16T23:01:06.126Z,3.33
2018-10-16T23:03:33.730Z,3.57
2018-10-16T23:06:01.277Z,3.67
2018-10-16T23:08:28.890Z,3.67
2018-10-16T23:10:56.540Z,3.77
2018-10-16T23:13:24.166Z,4.40
2018-10-16T23:15:51.678Z,4.17
2018-10-16T23:18:19.334Z,4.57
2018-10-16T23:20:46.959Z,5.63
2018-10-16T23:23:14.546Z,4.40
2018-10-16T23:25:42.033Z,4.53
2018-10-16T23:28:09.573Z,3.90
2018-10-16T23:30:37.213Z,3.43
2018-10-16T23:33:05.210Z,4.40
2018-10-16T23:35:32.843Z,5.33
2018-10-16T23:38:00.373Z,5.47
2018-10-16T23:40:27.893Z,3.83
2018-10-16T23:42:55.458Z,4.27
2018-10-16T23:45:23.082Z,3.97
2018-10-16T23:47:50.640Z,3.90
2018-10-16T23:50:18.314Z,3.53
2018-10-16T23:52:45.966Z,4.10
2018-10-16T23:55:13.685Z,4.13
2018-10-16T23:57:41.068Z,4.60
